Time;durP1;ratioP1;P1;durP2;ratioP2;P2;SDS_P1;SDS_P2;PMS_P1;PMS_P2;Temp;Humidity;BMP_temperature;BMP_pressure;BME280_temperature;BME280_humidity;BME280_pressure;Samples;Min_cycle;Max_cycle;Signal;HPM_P1;HPM_P2
2024/02/18 00:00:34;;;;;;;;;6.67;5.00;;;;;-144.24;100.00;114865.94;5059419;28;45462;-71
2024/02/18 00:03:00;;;;;;;;;5.00;5.00;;;;;-144.24;100.00;114865.94;5058238;28;67023;-71
2024/02/18 00:05:25;;;;;;;;;6.00;6.00;;;;;-144.24;100.00;114865.94;5085168;27;45445;-71
2024/02/18 00:07:50;;;;;;;;;6.00;6.00;;;;;-144.24;100.00;114865.94;5069220;28;46334;-72
2024/02/18 00:10:16;;;;;;;;;7.33;5.00;;;;;-144.24;100.00;114865.94;5072337;27;49328;-71
2024/02/18 00:12:41;;;;;;;;;6.67;4.00;;;;;-144.24;100.00;114865.94;5057242;28;65624;-72
2024/02/18 00:15:07;;;;;;;;;5.00;2.00;;;;;-144.24;100.00;114865.94;5061366;28;45542;-70
2024/02/18 00:17:32;;;;;;;;;8.67;5.00;;;;;-144.24;100.00;114865.94;5060267;28;46390;-72
2024/02/18 00:19:58;;;;;;;;;5.67;4.67;;;;;-144.24;100.00;114865.94;5061085;28;45400;-72
2024/02/18 00:22:23;;;;;;;;;7.00;4.00;;;;;-144.24;100.00;114865.94;5063034;28;45347;-71
2024/02/18 00:24:51;;;;;;;;;4.33;4.33;;;;;-144.24;100.00;114865.94;5066968;28;67050;-72
2024/02/18 00:27:16;;;;;;;;;6.33;5.00;;;;;-144.24;100.00;114865.94;5066697;27;46665;-71
2024/02/18 00:29:42;;;;;;;;;6.33;5.00;;;;;-144.24;100.00;114865.94;5064964;28;45192;-72
2024/02/18 00:32:07;;;;;;;;;10.00;4.00;;;;;-144.24;100.00;114865.94;5067584;28;45271;-71
2024/02/18 00:34:32;;;;;;;;;8.00;5.00;;;;;-144.24;100.00;114865.94;5066060;28;45516;-71
2024/02/18 00:36:58;;;;;;;;;9.67;4.67;;;;;-144.24;100.00;114865.94;5068760;28;46542;-72
2024/02/18 00:39:23;;;;;;;;;6.00;5.00;;;;;-144.24;100.00;114865.94;5066173;27;70207;-71
2024/02/18 00:41:48;;;;;;;;;8.33;7.00;;;;;-144.24;100.00;114865.94;5076789;27;68633;-71
2024/02/18 00:44:14;;;;;;;;;6.33;5.00;;;;;-144.24;100.00;114865.94;5066866;27;62341;-71
2024/02/18 00:46:39;;;;;;;;;6.00;3.67;;;;;-144.24;100.00;114865.94;5059175;28;46606;-71
2024/02/18 00:49:04;;;;;;;;;9.00;6.00;;;;;-144.24;100.00;114865.94;5068710;28;73079;-72
2024/02/18 00:51:30;;;;;;;;;4.00;4.00;;;;;-144.24;100.00;114865.94;5058212;28;45827;-71
2024/02/18 00:53:56;;;;;;;;;5.67;5.00;;;;;-144.24;100.00;114865.94;5056244;28;45386;-71
2024/02/18 00:56:22;;;;;;;;;4.33;4.00;;;;;-144.24;100.00;114865.94;5051855;28;46491;-72
2024/02/18 00:58:48;;;;;;;;;6.33;5.00;;;;;-144.24;100.00;114865.94;5057520;28;45474;-71
2024/02/18 01:01:14;;;;;;;;;5.00;5.00;;;;;-144.24;100.00;114865.94;5058222;28;45318;-71
2024/02/18 01:03:39;;;;;;;;;4.33;2.33;;;;;-144.24;100.00;114865.94;5057751;28;45247;-70
2024/02/18 01:06:05;;;;;;;;;3.33;3.33;;;;;-144.24;100.00;114865.94;5054814;28;73308;-71
2024/02/18 01:08:30;;;;;;;;;5.00;4.00;;;;;-144.24;100.00;114865.94;5055217;28;45433;-71
2024/02/18 01:10:56;;;;;;;;;4.00;4.00;;;;;-144.24;100.00;114865.94;5056815;28;45493;-72
2024/02/18 01:13:21;;;;;;;;;4.00;4.00;;;;;-144.24;100.00;114865.94;5056235;28;49475;-70
2024/02/18 01:15:47;;;;;;;;;6.00;4.00;;;;;-144.24;100.00;114865.94;5051763;28;59477;-71
2024/02/18 01:18:14;;;;;;;;;7.33;4.67;;;;;-144.24;100.00;114865.94;5055778;28;65739;-71
2024/02/18 01:20:39;;;;;;;;;10.00;6.33;;;;;-144.24;100.00;114865.94;5056814;28;45392;-71
2024/02/18 01:23:05;;;;;;;;;7.00;5.00;;;;;-144.24;100.00;114865.94;5057485;28;45329;-72
2024/02/18 01:25:30;;;;;;;;;5.33;3.00;;;;;-144.24;100.00;114865.94;5056797;28;46021;-72
2024/02/18 01:27:56;;;;;;;;;5.67;5.00;;;;;-144.24;100.00;114865.94;5056736;28;45376;-72
2024/02/18 01:30:22;;;;;;;;;9.33;6.00;;;;;-144.24;100.00;114865.94;5057266;28;45439;-70
2024/02/18 01:32:47;;;;;;;;;9.00;4.67;;;;;-144.24;100.00;114865.94;5056955;28;45460;-71
2024/02/18 01:35:12;;;;;;;;;8.67;5.00;;;;;-144.24;100.00;114865.94;5056717;28;46350;-70
2024/02/18 01:37:38;;;;;;;;;6.67;5.00;;;;;-144.24;100.00;114865.94;5055030;28;45423;-71
2024/02/18 01:40:06;;;;;;;;;10.00;5.33;;;;;-144.24;100.00;114865.94;5055966;28;45624;-71
2024/02/18 01:42:31;;;;;;;;;4.67;4.67;;;;;-144.24;100.00;114865.94;5056463;28;45581;-72
2024/02/18 01:44:57;;;;;;;;;9.67;5.67;;;;;-144.24;100.00;114865.94;5056514;28;46007;-70
2024/02/18 01:47:22;;;;;;;;;8.33;5.00;;;;;-144.24;100.00;114865.94;5056116;28;45407;-71
2024/02/18 01:49:48;;;;;;;;;5.00;5.00;;;;;-144.24;100.00;114865.94;5048140;28;63769;-70
2024/02/18 01:52:13;;;;;;;;;4.67;4.67;;;;;-144.24;100.00;114865.94;5056129;28;45374;-71
2024/02/18 01:54:39;;;;;;;;;5.33;4.00;;;;;-144.24;100.00;114865.94;5052119;28;49169;-70
2024/02/18 01:57:06;;;;;;;;;5.00;5.00;;;;;-144.24;100.00;114865.94;5053252;28;67593;-71
2024/02/18 01:59:32;;;;;;;;;7.00;6.00;;;;;-144.24;100.00;114865.94;5056631;28;45482;-71
2024/02/18 02:01:58;;;;;;;;;6.67;5.33;;;;;-144.24;100.00;114865.94;5054917;28;45455;-71
2024/02/18 02:04:23;;;;;;;;;7.00;5.00;;;;;-144.24;100.00;114865.94;5056292;28;46078;-70
2024/02/18 02:06:50;;;;;;;;;9.00;6.00;;;;;-144.24;100.00;114865.94;5051728;28;71737;-71
2024/02/18 02:09:16;;;;;;;;;4.33;4.33;;;;;-144.24;100.00;114865.94;5055760;28;45470;-71
2024/02/18 02:11:42;;;;;;;;;7.67;6.00;;;;;-144.24;100.00;114865.94;5052521;28;45394;-71
2024/02/18 02:14:07;;;;;;;;;5.67;5.00;;;;;-144.24;100.00;114865.94;5056223;28;45760;-71
2024/02/18 02:16:33;;;;;;;;;5.00;3.00;;;;;-144.24;100.00;114865.94;5055851;28;45488;-71
2024/02/18 02:18:58;;;;;;;;;7.33;4.00;;;;;-144.24;100.00;114865.94;5056766;28;45485;-70
2024/02/18 02:21:24;;;;;;;;;6.00;4.00;;;;;-144.24;100.00;114865.94;5055781;28;46506;-70
2024/02/18 02:23:50;;;;;;;;;10.33;4.67;;;;;-144.24;100.00;114865.94;5055682;28;53821;-71
2024/02/18 02:26:17;;;;;;;;;3.67;3.67;;;;;-144.24;100.00;114865.94;5049100;28;47122;-71
2024/02/18 02:28:47;;;;;;;;;4.67;4.67;;;;;-144.24;100.00;114865.94;5050482;28;45454;-71
2024/02/18 02:31:13;;;;;;;;;5.33;4.00;;;;;-144.24;100.00;114865.94;5056571;28;45549;-71
2024/02/18 02:33:40;;;;;;;;;6.33;4.00;;;;;-144.24;100.00;114865.94;5054597;28;46290;-71
2024/02/18 02:36:05;;;;;;;;;5.00;3.33;;;;;-144.24;100.00;114865.94;5055980;28;45841;-70
2024/02/18 02:38:32;;;;;;;;;6.00;5.67;;;;;-144.24;100.00;114865.94;5055934;28;45382;-70
2024/02/18 02:40:57;;;;;;;;;4.00;4.00;;;;;-144.24;100.00;114865.94;5056346;28;46315;-70
2024/02/18 02:43:23;;;;;;;;;5.33;4.00;;;;;-144.24;100.00;114865.94;5040899;28;46647;-70
2024/02/18 02:45:49;;;;;;;;;6.33;5.00;;;;;-144.24;100.00;114865.94;5051900;28;45426;-71
2024/02/18 02:48:14;;;;;;;;;4.00;4.00;;;;;-144.24;100.00;114865.94;5051718;28;45391;-70
2024/02/18 02:50:39;;;;;;;;;5.00;3.00;;;;;-144.24;100.00;114865.94;5053665;28;45384;-72
2024/02/18 02:53:05;;;;;;;;;6.33;4.67;;;;;-144.24;100.00;114865.94;5055913;28;45663;-71
2024/02/18 02:55:30;;;;;;;;;11.00;6.00;;;;;-144.24;100.00;114865.94;5055972;28;45461;-71
2024/02/18 02:57:56;;;;;;;;;6.00;4.33;;;;;-144.24;100.00;114865.94;5054848;28;64828;-71
2024/02/18 03:00:21;;;;;;;;;9.67;6.00;;;;;-144.24;100.00;114865.94;5054179;28;65435;-70
2024/02/18 03:02:47;;;;;;;;;10.33;4.00;;;;;-144.24;100.00;114865.94;5055185;28;45565;-71
2024/02/18 03:05:12;;;;;;;;;4.00;4.00;;;;;-144.24;100.00;114865.94;5055745;28;45469;-70
2024/02/18 03:07:37;;;;;;;;;5.33;4.00;;;;;-144.24;100.00;114865.94;5055280;28;58473;-70
2024/02/18 03:10:04;;;;;;;;;5.00;5.00;;;;;-144.24;100.00;114865.94;5056888;28;45477;-71
2024/02/18 03:12:29;;;;;;;;;6.67;4.00;;;;;-144.24;100.00;114865.94;5058521;28;46640;-70
2024/02/18 03:14:54;;;;;;;;;7.67;5.33;;;;;-144.24;100.00;114865.94;5057825;28;45447;-71
2024/02/18 03:17:20;;;;;;;;;4.67;4.67;;;;;-144.24;100.00;114865.94;5059034;28;45477;-71
2024/02/18 03:19:45;;;;;;;;;10.00;6.00;;;;;-144.24;100.00;114865.94;5058988;28;45627;-70
2024/02/18 03:22:10;;;;;;;;;5.33;4.00;;;;;-144.24;100.00;114865.94;5067244;28;63029;-70
2024/02/18 03:24:39;;;;;;;;;6.00;4.00;;;;;-144.24;100.00;114865.94;5058349;28;62894;-70
2024/02/18 03:27:04;;;;;;;;;7.33;4.33;;;;;-144.24;100.00;114865.94;5058484;28;67607;-71
2024/02/18 03:29:31;;;;;;;;;8.33;4.67;;;;;-144.24;100.00;114865.94;5058189;28;57815;-70
2024/02/18 03:31:57;;;;;;;;;7.00;5.00;;;;;-144.24;100.00;114865.94;5058876;28;46368;-71
2024/02/18 03:34:23;;;;;;;;;9.00;5.00;;;;;-144.24;100.00;114865.94;5057776;28;61310;-71
2024/02/18 03:36:48;;;;;;;;;6.67;4.33;;;;;-144.24;100.00;114865.94;5058669;28;46423;-72
2024/02/18 03:39:13;;;;;;;;;5.00;5.00;;;;;-144.24;100.00;114865.94;5059515;28;45343;-71
2024/02/18 03:41:39;;;;;;;;;10.00;6.00;;;;;-144.24;100.00;114865.94;5057656;28;68001;-72
2024/02/18 03:44:05;;;;;;;;;11.33;6.00;;;;;-144.24;100.00;114865.94;5059017;28;45407;-71
2024/02/18 03:46:30;;;;;;;;;5.33;5.00;;;;;-144.24;100.00;114865.94;5058000;28;45485;-72
2024/02/18 03:48:55;;;;;;;;;9.00;5.67;;;;;-144.24;100.00;114865.94;5058051;28;45453;-71
2024/02/18 03:51:21;;;;;;;;;7.33;7.33;;;;;-144.24;100.00;114865.94;5055707;28;45552;-71
2024/02/18 03:53:46;;;;;;;;;8.33;5.67;;;;;-144.24;100.00;114865.94;5057522;28;63554;-72
2024/02/18 03:56:11;;;;;;;;;7.00;6.00;;;;;-144.24;100.00;114865.94;5057474;28;65433;-71
2024/02/18 03:58:37;;;;;;;;;8.67;6.00;;;;;-144.24;100.00;114865.94;5055934;28;53416;-71
2024/02/18 04:01:02;;;;;;;;;6.00;6.00;;;;;-144.24;100.00;114865.94;5057463;28;58119;-72
2024/02/18 04:03:27;;;;;;;;;6.67;5.33;;;;;-144.24;100.00;114865.94;5058258;28;45569;-71
2024/02/18 04:05:53;;;;;;;;;5.33;5.00;;;;;-144.24;100.00;114865.94;5057602;28;48258;-70
2024/02/18 04:08:18;;;;;;;;;8.33;8.33;;;;;-144.24;100.00;114865.94;5054225;28;62264;-71
2024/02/18 04:10:43;;;;;;;;;7.00;5.00;;;;;-144.24;100.00;114865.94;5056743;28;68492;-71
2024/02/18 04:13:10;;;;;;;;;7.67;6.00;;;;;-144.24;100.00;114865.94;5057596;28;68264;-71
2024/02/18 04:15:35;;;;;;;;;12.00;6.00;;;;;-144.24;100.00;114865.94;5058288;28;45215;-71
2024/02/18 04:18:00;;;;;;;;;6.67;6.67;;;;;-144.24;100.00;114865.94;5056856;28;45338;-70
2024/02/18 04:20:26;;;;;;;;;8.00;8.00;;;;;-144.24;100.00;114865.94;5056382;28;71594;-71
2024/02/18 04:22:51;;;;;;;;;7.33;7.33;;;;;-144.24;100.00;114865.94;5057770;28;50126;-70
2024/02/18 04:25:16;;;;;;;;;11.33;6.00;;;;;-144.24;100.00;114865.94;5046982;28;65861;-71
2024/02/18 04:27:42;;;;;;;;;8.67;6.67;;;;;-144.24;100.00;114865.94;5054734;28;45315;-72
2024/02/18 04:30:08;;;;;;;;;9.33;5.67;;;;;-144.24;100.00;114865.94;5057185;28;58017;-71
2024/02/18 04:32:33;;;;;;;;;8.00;7.33;;;;;-144.24;100.00;114865.94;5057997;28;45521;-70
2024/02/18 04:34:58;;;;;;;;;9.67;5.00;;;;;-144.24;100.00;114865.94;5057229;28;61076;-72
2024/02/18 04:37:23;;;;;;;;;6.00;3.67;;;;;-144.24;100.00;114865.94;5057139;28;60325;-71
2024/02/18 04:39:49;;;;;;;;;10.67;5.00;;;;;-144.24;100.00;114865.94;5056700;28;72847;-70
2024/02/18 04:42:14;;;;;;;;;5.67;4.00;;;;;-144.24;100.00;114865.94;5057256;28;68258;-71
2024/02/18 04:44:39;;;;;;;;;9.67;5.33;;;;;-144.24;100.00;114865.94;5057120;28;65376;-71
2024/02/18 04:47:05;;;;;;;;;6.00;6.00;;;;;-144.24;100.00;114865.94;5057163;28;62868;-71
2024/02/18 04:49:31;;;;;;;;;9.00;8.00;;;;;-144.24;100.00;114865.94;5056762;28;70646;-71
2024/02/18 04:51:56;;;;;;;;;7.33;6.67;;;;;-144.24;100.00;114865.94;5056189;28;45687;-71
2024/02/18 04:54:21;;;;;;;;;9.67;5.67;;;;;-144.24;100.00;114865.94;5058034;28;45252;-71
2024/02/18 04:56:46;;;;;;;;;8.00;4.00;;;;;-144.24;100.00;114865.94;5056786;28;56999;-70
2024/02/18 04:59:12;;;;;;;;;5.00;5.00;;;;;-144.24;100.00;114865.94;5055761;28;60084;-71
2024/02/18 05:01:37;;;;;;;;;6.00;5.00;;;;;-144.24;100.00;114865.94;5056159;28;68638;-71
2024/02/18 05:04:03;;;;;;;;;8.33;5.67;;;;;-144.24;100.00;114865.94;5055884;28;67188;-71
2024/02/18 05:06:28;;;;;;;;;8.00;4.00;;;;;-144.24;100.00;114865.94;5057583;28;45307;-71
2024/02/18 05:08:54;;;;;;;;;5.00;5.00;;;;;-144.24;100.00;114865.94;5056102;28;74895;-71
2024/02/18 05:11:20;;;;;;;;;6.00;4.67;;;;;-144.24;100.00;114865.94;5053432;28;45299;-72
2024/02/18 05:13:45;;;;;;;;;8.33;4.33;;;;;-144.24;100.00;114865.94;5055629;28;45469;-71
2024/02/18 05:16:11;;;;;;;;;9.67;6.33;;;;;-144.24;100.00;114865.94;5057153;28;56814;-70
2024/02/18 05:18:36;;;;;;;;;12.00;5.33;;;;;-144.24;100.00;114865.94;5056530;28;57172;-71
2024/02/18 05:21:03;;;;;;;;;8.33;7.33;;;;;-144.24;100.00;114865.94;5056751;28;45268;-71
2024/02/18 05:23:29;;;;;;;;;11.00;8.00;;;;;-144.24;100.00;114865.94;5055974;28;45298;-70
2024/02/18 05:25:55;;;;;;;;;6.33;6.33;;;;;-144.24;100.00;114865.94;5056993;28;45501;-70
2024/02/18 05:28:20;;;;;;;;;6.00;4.33;;;;;-144.24;100.00;114865.94;5056973;28;46575;-71
2024/02/18 05:30:45;;;;;;;;;8.67;6.67;;;;;-144.24;100.00;114865.94;5060088;28;68332;-71
2024/02/18 05:33:11;;;;;;;;;6.67;6.33;;;;;-144.24;100.00;114865.94;5055740;28;45301;-71
2024/02/18 05:35:36;;;;;;;;;8.67;5.00;;;;;-144.24;100.00;114865.94;5056716;28;47925;-71
2024/02/18 05:38:01;;;;;;;;;7.33;7.33;;;;;-144.24;100.00;114865.94;5055933;28;70212;-72
2024/02/18 05:40:27;;;;;;;;;4.00;4.00;;;;;-144.24;100.00;114865.94;5056189;28;54448;-71
2024/02/18 05:42:52;;;;;;;;;8.33;8.00;;;;;-144.24;100.00;114865.94;5056826;28;45399;-71
2024/02/18 05:45:21;;;;;;;;;7.33;7.33;;;;;-144.24;100.00;114865.94;5055050;28;65578;-71
2024/02/18 05:47:46;;;;;;;;;7.00;5.00;;;;;-144.24;100.00;114865.94;5056610;28;46102;-72
2024/02/18 05:50:11;;;;;;;;;6.00;6.00;;;;;-144.24;100.00;114865.94;5054024;28;68667;-72
2024/02/18 05:52:37;;;;;;;;;5.67;5.67;;;;;-144.24;100.00;114865.94;5056565;28;45208;-71
2024/02/18 05:55:02;;;;;;;;;6.00;4.67;;;;;-144.24;100.00;114865.94;5056596;28;47580;-71
2024/02/18 05:57:28;;;;;;;;;6.33;4.67;;;;;-144.24;100.00;114865.94;5056189;28;45557;-70
2024/02/18 05:59:53;;;;;;;;;4.67;4.67;;;;;-144.24;100.00;114865.94;5056641;28;45459;-72
2024/02/18 06:02:18;;;;;;;;;8.67;5.67;;;;;-144.24;100.00;114865.94;5055148;28;49584;-72
2024/02/18 06:04:44;;;;;;;;;4.00;4.00;;;;;-144.24;100.00;114865.94;5054709;28;61364;-72
2024/02/18 06:07:09;;;;;;;;;5.00;5.00;;;;;-144.24;100.00;114865.94;5056662;28;46479;-71
2024/02/18 06:09:34;;;;;;;;;8.00;5.00;;;;;-144.24;100.00;114865.94;5056555;28;45449;-72
2024/02/18 06:12:00;;;;;;;;;10.00;6.67;;;;;-144.24;100.00;114865.94;5054263;28;59886;-72
2024/02/18 06:14:25;;;;;;;;;6.33;4.00;;;;;-144.24;100.00;114865.94;5054874;28;45619;-71
2024/02/18 06:16:51;;;;;;;;;4.67;4.67;;;;;-144.24;100.00;114865.94;5055259;28;61206;-72
2024/02/18 06:19:16;;;;;;;;;8.33;5.00;;;;;-144.24;100.00;114865.94;5055426;28;69068;-72
2024/02/18 06:21:41;;;;;;;;;3.67;3.67;;;;;-144.24;100.00;114865.94;5056254;28;45449;-72
2024/02/18 06:24:07;;;;;;;;;4.67;4.00;;;;;-144.24;100.00;114865.94;5055088;28;60245;-72
2024/02/18 06:26:33;;;;;;;;;6.00;6.00;;;;;-144.24;100.00;114865.94;5056053;28;45628;-71
2024/02/18 06:28:58;;;;;;;;;6.67;5.00;;;;;-144.24;100.00;114865.94;5055939;28;54657;-72
2024/02/18 06:31:23;;;;;;;;;6.00;5.00;;;;;-144.24;100.00;114865.94;5055161;28;63716;-72
2024/02/18 06:33:48;;;;;;;;;6.00;6.00;;;;;-144.24;100.00;114865.94;5055885;28;63805;-72
2024/02/18 06:36:15;;;;;;;;;10.67;5.33;;;;;-144.24;100.00;114865.94;5055198;28;74115;-71
2024/02/18 06:38:42;;;;;;;;;7.00;5.00;;;;;-144.24;100.00;114865.94;5052118;28;45308;-71
2024/02/18 06:41:07;;;;;;;;;8.00;4.00;;;;;-144.24;100.00;114865.94;5055504;28;45538;-72
2024/02/18 06:43:33;;;;;;;;;4.00;4.00;;;;;-144.24;100.00;114865.94;5057682;28;45351;-71
2024/02/18 06:45:58;;;;;;;;;4.00;4.00;;;;;-144.24;100.00;114865.94;5058903;28;75128;-72
2024/02/18 06:48:23;;;;;;;;;6.00;4.00;;;;;-144.24;100.00;114865.94;5060132;28;45392;-72
2024/02/18 06:50:49;;;;;;;;;4.00;4.00;;;;;-144.24;100.00;114865.94;5057765;28;45561;-72
2024/02/18 06:53:15;;;;;;;;;5.00;4.00;;;;;-144.24;100.00;114865.94;5059429;28;63774;-71
2024/02/18 06:55:40;;;;;;;;;6.00;4.67;;;;;-144.24;100.00;114865.94;5059417;28;45549;-72
2024/02/18 06:58:05;;;;;;;;;9.33;3.00;;;;;-144.24;100.00;114865.94;5058873;28;69846;-72
2024/02/18 07:00:32;;;;;;;;;3.00;3.00;;;;;-144.24;100.00;114865.94;5059507;28;45287;-71
2024/02/18 07:02:57;;;;;;;;;5.00;3.00;;;;;-144.24;100.00;114865.94;5059860;28;46233;-72
2024/02/18 07:05:23;;;;;;;;;4.67;4.00;;;;;-144.24;100.00;114865.94;5057692;28;62607;-71
2024/02/18 07:07:48;;;;;;;;;4.67;3.67;;;;;-144.24;100.00;114865.94;5058870;28;64230;-72
2024/02/18 07:10:13;;;;;;;;;5.67;4.33;;;;;-144.24;100.00;114865.94;5059002;28;45393;-72
2024/02/18 07:12:39;;;;;;;;;4.00;4.00;;;;;-144.24;100.00;114865.94;5059084;28;45419;-71
2024/02/18 07:15:05;;;;;;;;;6.33;4.33;;;;;-144.24;100.00;114865.94;5058026;28;72104;-71
2024/02/18 07:17:30;;;;;;;;;7.00;4.67;;;;;-144.24;100.00;114865.94;5057754;28;45395;-72
2024/02/18 07:19:55;;;;;;;;;6.67;3.67;;;;;-144.24;100.00;114865.94;5059117;28;55029;-72
2024/02/18 07:22:23;;;;;;;;;4.67;4.67;;;;;-144.24;100.00;114865.94;5059512;28;45287;-71
2024/02/18 07:24:49;;;;;;;;;6.00;4.00;;;;;-144.24;100.00;114865.94;5058560;28;46439;-71
2024/02/18 07:27:15;;;;;;;;;6.33;5.00;;;;;-144.24;100.00;114865.94;5058243;28;69308;-71
2024/02/18 07:29:40;;;;;;;;;9.67;5.67;;;;;-144.24;100.00;114865.94;5058901;28;45532;-72
2024/02/18 07:32:06;;;;;;;;;9.67;6.00;;;;;-144.24;100.00;114865.94;5058453;28;65560;-71
2024/02/18 07:34:31;;;;;;;;;4.67;4.00;;;;;-144.24;100.00;114865.94;5058763;28;46302;-72
2024/02/18 07:36:57;;;;;;;;;4.00;4.00;;;;;-144.24;100.00;114865.94;5058895;28;45381;-71
2024/02/18 07:39:24;;;;;;;;;9.00;7.33;;;;;-144.24;100.00;114865.94;5057965;28;66544;-72
2024/02/18 07:41:49;;;;;;;;;8.67;6.00;;;;;-144.24;100.00;114865.94;5058996;28;45585;-72
2024/02/18 07:44:14;;;;;;;;;5.00;5.00;;;;;-144.24;100.00;114865.94;5058528;28;46965;-72
2024/02/18 07:46:40;;;;;;;;;7.67;5.00;;;;;-144.24;100.00;114865.94;5057991;28;56466;-72
2024/02/18 07:49:06;;;;;;;;;6.00;5.00;;;;;-144.24;100.00;114865.94;5058948;28;45465;-72
2024/02/18 07:51:32;;;;;;;;;4.67;4.00;;;;;-144.24;100.00;114865.94;5057063;28;45236;-72
2024/02/18 07:53:57;;;;;;;;;9.00;4.33;;;;;-144.24;100.00;114865.94;5057506;28;67987;-72
2024/02/18 07:56:22;;;;;;;;;10.00;4.00;;;;;-144.24;100.00;114865.94;5057682;28;60603;-71
2024/02/18 07:58:48;;;;;;;;;5.67;5.67;;;;;-144.24;100.00;114865.94;5056170;28;65139;-72
2024/02/18 08:01:13;;;;;;;;;5.00;5.00;;;;;-144.24;100.00;114865.94;5058590;28;45323;-72
2024/02/18 08:03:39;;;;;;;;;5.00;4.00;;;;;-144.24;100.00;114865.94;5058343;28;46439;-72
2024/02/18 08:06:04;;;;;;;;;5.33;3.00;;;;;-144.24;100.00;114865.94;5057779;28;72430;-72
2024/02/18 08:08:30;;;;;;;;;3.00;3.00;;;;;-144.24;100.00;114865.94;5059018;28;46740;-72
2024/02/18 08:10:55;;;;;;;;;5.67;3.00;;;;;-144.24;100.00;114865.94;5057334;28;66920;-72
2024/02/18 08:13:20;;;;;;;;;3.33;3.33;;;;;-144.24;100.00;114865.94;5057535;28;65088;-71
2024/02/18 08:15:46;;;;;;;;;6.00;3.33;;;;;-144.24;100.00;114865.94;5057066;28;69385;-72
2024/02/18 08:18:11;;;;;;;;;3.00;3.00;;;;;-144.24;100.00;114865.94;5056759;28;69245;-72
2024/02/18 08:20:38;;;;;;;;;5.00;3.67;;;;;-144.24;100.00;114865.94;5058268;28;45457;-71
2024/02/18 08:23:05;;;;;;;;;6.00;3.00;;;;;-144.24;100.00;114865.94;5058280;28;47491;-72
2024/02/18 08:25:30;;;;;;;;;7.33;4.00;;;;;-144.24;100.00;114865.94;5057002;28;46369;-72
2024/02/18 08:27:56;;;;;;;;;7.33;4.00;;;;;-144.24;100.00;114865.94;5057348;28;68620;-71
2024/02/18 08:30:21;;;;;;;;;3.00;3.00;;;;;-144.24;100.00;114865.94;5057818;28;61195;-72
2024/02/18 08:32:46;;;;;;;;;5.33;2.67;;;;;-144.24;100.00;114865.94;5059014;28;65173;-73
2024/02/18 08:35:11;;;;;;;;;4.00;2.33;;;;;-144.24;100.00;114865.94;5057428;28;64838;-73
2024/02/18 08:37:37;;;;;;;;;4.00;4.00;;;;;-144.24;100.00;114865.94;5052262;28;69311;-73
2024/02/18 08:40:04;;;;;;;;;4.33;2.00;;;;;-144.24;100.00;114865.94;5049629;28;45532;-73
2024/02/18 08:42:29;;;;;;;;;3.33;3.00;;;;;-144.24;100.00;114865.94;5047789;28;46686;-73
2024/02/18 08:44:55;;;;;;;;;2.00;2.00;;;;;-144.24;100.00;114865.94;5057031;28;45367;-73
2024/02/18 08:47:20;;;;;;;;;4.67;4.00;;;;;-144.24;100.00;114865.94;5052511;28;45476;-73
2024/02/18 08:49:46;;;;;;;;;3.33;2.00;;;;;-144.24;100.00;114865.94;5056762;28;63074;-73
2024/02/18 08:52:11;;;;;;;;;6.00;3.00;;;;;-144.24;100.00;114865.94;5056952;28;45320;-72
2024/02/18 08:54:37;;;;;;;;;5.00;3.00;;;;;-144.24;100.00;114865.94;5057981;28;45362;-72
2024/02/18 08:57:02;;;;;;;;;3.00;3.00;;;;;-144.24;100.00;114865.94;5073387;28;45333;-73
2024/02/18 08:59:28;;;;;;;;;4.00;2.33;;;;;-144.24;100.00;114865.94;5057868;28;45410;-72
2024/02/18 09:01:55;;;;;;;;;10.33;4.00;;;;;-144.24;100.00;114865.94;5054312;28;47608;-72
2024/02/18 09:04:22;;;;;;;;;7.00;3.00;;;;;-144.24;100.00;114865.94;5055775;28;45734;-70
2024/02/18 09:06:47;;;;;;;;;5.00;3.00;;;;;-144.24;100.00;114865.94;5054638;28;45196;-72
2024/02/18 09:09:13;;;;;;;;;3.00;3.00;;;;;-144.24;100.00;114865.94;5044084;28;60982;-68
2024/02/18 09:11:40;;;;;;;;;4.33;3.00;;;;;-144.24;100.00;114865.94;5044277;28;47486;-72
2024/02/18 09:14:05;;;;;;;;;3.00;1.00;;;;;-144.24;100.00;114865.94;5045440;28;45478;-70
2024/02/18 09:16:31;;;;;;;;;3.00;3.00;;;;;-144.24;100.00;114865.94;5039413;28;64987;-69
2024/02/18 09:18:56;;;;;;;;;10.00;4.00;;;;;-144.24;100.00;114865.94;5042002;28;62364;-68
2024/02/18 09:21:21;;;;;;;;;5.67;3.00;;;;;-144.24;100.00;114865.94;5044562;28;69248;-69
2024/02/18 09:23:47;;;;;;;;;5.67;2.67;;;;;-144.24;100.00;114865.94;5041826;28;65884;-68
2024/02/18 09:26:12;;;;;;;;;4.33;3.33;;;;;-144.24;100.00;114865.94;5041169;28;67931;-67
2024/02/18 09:28:37;;;;;;;;;2.33;2.00;;;;;-144.24;100.00;114865.94;5040458;28;57574;-69
2024/02/18 09:31:04;;;;;;;;;4.33;2.67;;;;;-144.24;100.00;114865.94;5039315;28;45659;-74
2024/02/18 09:33:30;;;;;;;;;4.33;3.00;;;;;-144.24;100.00;114865.94;5046339;28;45956;-73
2024/02/18 09:35:55;;;;;;;;;2.00;2.00;;;;;-144.24;100.00;114865.94;5056365;28;45584;-74
2024/02/18 09:38:20;;;;;;;;;2.00;0.33;;;;;-144.24;100.00;114865.94;5052286;28;66706;-75
2024/02/18 09:40:46;;;;;;;;;3.67;2.00;;;;;-144.24;100.00;114865.94;5049708;28;71099;-72
2024/02/18 09:43:13;;;;;;;;;3.33;2.00;;;;;-144.24;100.00;114865.94;5052569;28;45496;-72
2024/02/18 09:45:40;;;;;;;;;3.00;2.00;;;;;-144.24;100.00;114865.94;5048434;28;65816;-72
2024/02/18 09:48:06;;;;;;;;;5.67;1.33;;;;;-144.24;100.00;114865.94;5046701;28;65067;-73
2024/02/18 09:50:33;;;;;;;;;3.33;1.00;;;;;-144.24;100.00;114865.94;5044032;28;46990;-72
2024/02/18 09:53:00;;;;;;;;;3.00;1.00;;;;;-144.24;100.00;114865.94;5048170;28;45429;-72
2024/02/18 09:55:25;;;;;;;;;2.00;2.00;;;;;-144.24;100.00;114865.94;5053056;28;45400;-72
2024/02/18 09:57:50;;;;;;;;;0.00;0.00;;;;;-144.24;100.00;114865.94;5054611;28;45454;-72
2024/02/18 10:00:18;;;;;;;;;2.00;2.00;;;;;-144.24;100.00;114865.94;5053441;28;75385;-72
2024/02/18 10:02:43;;;;;;;;;3.67;2.00;;;;;-144.24;100.00;114865.94;5052050;28;45561;-72
2024/02/18 10:05:09;;;;;;;;;1.00;1.00;;;;;-144.24;100.00;114865.94;5051224;28;45378;-72
2024/02/18 10:07:35;;;;;;;;;5.00;2.00;;;;;-144.24;100.00;114865.94;5043225;28;45572;-72
2024/02/18 10:10:02;;;;;;;;;1.67;0.67;;;;;-144.24;100.00;114865.94;5038110;28;46681;-72
2024/02/18 10:12:29;;;;;;;;;4.00;2.00;;;;;-144.24;100.00;114865.94;5050902;28;45550;-71
2024/02/18 10:14:56;;;;;;;;;3.00;2.00;;;;;-144.24;100.00;114865.94;5042408;28;45300;-72
2024/02/18 10:17:22;;;;;;;;;3.00;3.00;;;;;-144.24;100.00;114865.94;5047523;28;45410;-70
2024/02/18 10:19:47;;;;;;;;;6.00;3.00;;;;;-144.24;100.00;114865.94;5042633;28;75456;-70
2024/02/18 10:22:13;;;;;;;;;5.33;3.00;;;;;-144.24;100.00;114865.94;5049240;28;75387;-70
2024/02/18 10:24:38;;;;;;;;;3.00;3.00;;;;;-144.24;100.00;114865.94;5053827;28;65629;-70
2024/02/18 10:27:04;;;;;;;;;2.67;2.67;;;;;-144.24;100.00;114865.94;5053930;28;45640;-69
2024/02/18 10:29:31;;;;;;;;;2.00;2.00;;;;;-144.24;100.00;114865.94;5052483;28;46805;-71
2024/02/18 10:31:57;;;;;;;;;3.00;3.00;;;;;-144.24;100.00;114865.94;5056317;28;45475;-71
2024/02/18 10:34:22;;;;;;;;;3.00;3.00;;;;;-144.24;100.00;114865.94;5056068;28;45545;-71
2024/02/18 10:36:54;;;;;;;;;4.00;3.00;;;;;-144.24;100.00;114865.94;5056232;28;45576;-71
2024/02/18 10:39:24;;;;;;;;;2.00;2.00;;;;;-144.24;100.00;114865.94;5055462;28;46457;-71
2024/02/18 10:42:10;;;;;;;;;3.67;3.00;;;;;-144.24;100.00;114865.94;5055891;28;45339;-71
2024/02/18 10:44:36;;;;;;;;;3.67;3.67;;;;;-144.24;100.00;114865.94;5054881;28;45320;-71
2024/02/18 10:47:01;;;;;;;;;3.00;3.00;;;;;-144.24;100.00;114865.94;5055051;28;46858;-71
2024/02/18 10:49:34;;;;;;;;;3.00;3.00;;;;;-144.24;100.00;114865.94;5050928;28;45671;-71
2024/02/18 10:52:14;;;;;;;;;5.33;3.67;;;;;-144.24;100.00;114865.94;5069300;28;45520;-71
2024/02/18 10:54:46;;;;;;;;;5.00;2.00;;;;;-144.24;100.00;114865.94;5053963;28;45236;-71